PWSweather.com
Personal Weather Stations
Station Observations
SHAHALMS1
Eftra, Falkenberg, HA

EftraFalkenberg, HA

Lat: 56.85, Lon: 12.65

Elevation: 140

Station Type:

http://hem.passagen.se/risarp101

High Low Average
Temperature 54.7°F12.6°C 41.2°F5.1°C 47.6°F8.7°C
Dew Point 44.6°F7.0°C 35.6°F2.0°C 40.4°F4.7°C
Winds 13.4 mph 21.6 kmh Calm Calm 3.0 mph WSW4.8 kmh WSW
Wind Gusts 21.1 mph34.0 kmh -- 8.0 mph12.9 kmh
Humidity 86% 62% 76%
Pressure 30.04 in1017.3 mb 29.71 in1006.1 mb -
Precipitation 0.09 in2.3 mm - -
Hour Temp Dew Point Humidity Winds Wind Gusts Pressure Precip Precip Rate Daily Precip Total
12:00 AM 48.0°F8.9°C 37.6°F3.1°C 67% 10.1 mph N16.3 kmh N 16.5 mph26.6 kmh 29.71 in1006.1 mb 0.00 in0.0 mm 0.00 in0.0 mm 0.00 in0.0 mm
12:15 AM 47.5°F8.6°C 36.3°F2.4°C 65% 11.8 mph N19.0 kmh N 20.8 mph33.5 kmh 29.71 in1006.1 mb 0.00 in0.0 mm 0.00 in0.0 mm 0.00 in0.0 mm
12:30 AM 46.8°F8.2°C 35.6°F2.0°C 65% 13.0 mph N20.9 kmh N 21.1 mph34.0 kmh 29.71 in1006.1 mb 0.00 in0.0 mm 0.00 in0.0 mm 0.00 in0.0 mm
12:45 AM 45.3°F7.4°C 36.5°F2.5°C 71% 13.4 mph N21.6 kmh N 21.1 mph34.0 kmh 29.74 in1007.1 mb 0.00 in0.0 mm 0.00 in0.0 mm 0.00 in0.0 mm
01:00 AM 44.6°F7.0°C 36.8°F2.7°C 74% 8.4 mph N13.5 kmh N 16.1 mph25.9 kmh 29.74 in1007.1 mb 0.00 in0.0 mm 0.00 in0.0 mm 0.00 in0.0 mm
01:15 AM 44.4°F6.9°C 37.7°F3.2°C 77% 8.2 mph N13.2 kmh N 13.6 mph21.9 kmh 29.74 in1007.1 mb 0.00 in0.0 mm 0.00 in0.0 mm 0.00 in0.0 mm
01:30 AM 44.2°F6.8°C 37.8°F3.2°C 78% 5.6 mph N9.0 kmh N 10.4 mph16.7 kmh 29.74 in1007.1 mb 0.00 in0.0 mm 0.00 in0.0 mm 0.00 in0.0 mm
01:45 AM 44.2°F6.8°C 38.1°F3.4°C 79% 4.6 mph N7.4 kmh N 8.9 mph14.3 kmh 29.74 in1007.1 mb 0.00 in0.0 mm 0.00 in0.0 mm 0.00 in0.0 mm
02:00 AM 44.2°F6.8°C 38.1°F3.4°C 79% 2.9 mph N4.7 kmh N 7.2 mph11.6 kmh 29.74 in1007.1 mb 0.00 in0.0 mm 0.00 in0.0 mm 0.00 in0.0 mm
02:15 AM 44.2°F6.8°C 38.5°F3.6°C 80% 4.9 mph N7.9 kmh N 8.6 mph13.8 kmh 29.74 in1007.1 mb 0.05 in1.3 mm 0.20 in5.1 mm 0.05 in1.3 mm
02:30 AM 44.2°F6.8°C 39.1°F3.9°C 82% 5.7 mph N9.2 kmh N 10.0 mph16.1 kmh 29.77 in1008.1 mb 0.05 in1.3 mm 0.00 in0.0 mm 0.05 in1.3 mm
02:45 AM 44.1°F6.7°C 39.2°F4.0°C 83% 6.7 mph N10.8 kmh N 12.2 mph19.6 kmh 29.77 in1008.1 mb 0.05 in1.3 mm 0.00 in0.0 mm 0.05 in1.3 mm
03:00 AM 43.9°F6.6°C 39.1°F3.9°C 83% 5.3 mph N8.5 kmh N 8.9 mph14.3 kmh 29.77 in1008.1 mb 0.05 in1.3 mm 0.00 in0.0 mm 0.05 in1.3 mm
03:15 AM 43.9°F6.6°C 39.1°F3.9°C 83% 5.3 mph N8.5 kmh N 10.4 mph16.7 kmh 29.77 in1008.1 mb 0.00 in0.0 mm 0.00 in0.0 mm 0.05 in1.3 mm
03:30 AM 43.7°F6.5°C 38.9°F3.8°C 83% 3.7 mph N6.0 kmh N 7.9 mph12.7 kmh 29.77 in1008.1 mb 0.05 in1.3 mm 0.20 in5.1 mm 0.09 in2.3 mm
03:45 AM 43.7°F6.5°C 39.2°F4.0°C 84% 2.9 mph N4.7 kmh N 7.5 mph12.1 kmh 29.77 in1008.1 mb 0.05 in1.3 mm 0.00 in0.0 mm 0.09 in2.3 mm
04:00 AM 43.7°F6.5°C 39.2°F4.0°C 84% 3.4 mph N5.5 kmh N 10.4 mph16.7 kmh 29.80 in1009.1 mb 0.05 in1.3 mm 0.00 in0.0 mm 0.09 in2.3 mm
04:15 AM 43.7°F6.5°C 39.2°F4.0°C 84% 5.5 mph N8.9 kmh N 11.8 mph19.0 kmh 29.80 in1009.1 mb 0.05 in1.3 mm 0.00 in0.0 mm 0.09 in2.3 mm
04:30 AM 43.5°F6.4°C 39.0°F3.9°C 84% 3.8 mph N6.1 kmh N 6.8 mph10.9 kmh 29.80 in1009.1 mb 0.00 in0.0 mm 0.00 in0.0 mm 0.09 in2.3 mm
04:45 AM 43.5°F6.4°C 39.0°F3.9°C 84% 5.2 mph N8.4 kmh N 10.0 mph16.1 kmh 29.80 in1009.1 mb 0.00 in0.0 mm 0.00 in0.0 mm 0.09 in2.3 mm
05:00 AM 43.5°F6.4°C 39.0°F3.9°C 84% 5.0 mph N8.0 kmh N 7.9 mph12.7 kmh 29.80 in1009.1 mb 0.00 in0.0 mm 0.00 in0.0 mm 0.09 in2.3 mm
05:15 AM 43.3°F6.3°C 38.8°F3.8°C 84% 5.4 mph N8.7 kmh N 10.0 mph16.1 kmh 29.80 in1009.1 mb 0.00 in0.0 mm 0.00 in0.0 mm 0.09 in2.3 mm
05:30 AM 43.2°F6.2°C 38.7°F3.7°C 84% 4.9 mph N7.9 kmh N 8.6 mph13.8 kmh 29.80 in1009.1 mb 0.00 in0.0 mm 0.00 in0.0 mm 0.09 in2.3 mm
05:45 AM 43.0°F6.1°C 38.5°F3.6°C 84% 0.9 mph N1.4 kmh N 5.0 mph8.0 kmh 29.77 in1008.1 mb 0.00 in0.0 mm 0.00 in0.0 mm 0.09 in2.3 mm
06:00 AM 42.8°F6.0°C 38.3°F3.5°C 84% Calm Calm 1.4 mph2.3 kmh 29.77 in1008.1 mb 0.00 in0.0 mm 0.00 in0.0 mm 0.09 in2.3 mm
06:15 AM 42.3°F5.7°C 37.8°F3.2°C 84% Calm Calm -- 29.77 in1008.1 mb 0.00 in0.0 mm 0.00 in0.0 mm 0.09 in2.3 mm
06:31 AM 41.7°F5.4°C 37.2°F2.9°C 84% Calm Calm 1.4 mph2.3 kmh 29.80 in1009.1 mb 0.00 in0.0 mm 0.00 in0.0 mm 0.09 in2.3 mm
06:45 AM 41.5°F5.3°C 37.1°F2.8°C 84% 1.1 mph NNW1.8 kmh NNW 3.9 mph6.3 kmh 29.80 in1009.1 mb 0.00 in0.0 mm 0.00 in0.0 mm 0.09 in2.3 mm
07:00 AM 41.4°F5.2°C 36.9°F2.7°C 84% 0.2 mph W0.3 kmh W 4.7 mph7.6 kmh 29.83 in1010.2 mb 0.00 in0.0 mm 0.00 in0.0 mm 0.09 in2.3 mm
07:15 AM 41.2°F5.1°C 36.7°F2.6°C 84% 0.1 mph W0.2 kmh W 2.5 mph4.0 kmh 29.83 in1010.2 mb 0.00 in0.0 mm 0.00 in0.0 mm 0.09 in2.3 mm
07:30 AM 41.5°F5.3°C 37.4°F3.0°C 85% Calm Calm -- 29.83 in1010.2 mb 0.00 in0.0 mm 0.00 in0.0 mm 0.09 in2.3 mm
07:45 AM 41.9°F5.5°C 37.7°F3.2°C 85% Calm Calm 1.4 mph2.3 kmh 29.86 in1011.2 mb 0.00 in0.0 mm 0.00 in0.0 mm 0.09 in2.3 mm
08:00 AM 42.4°F5.8°C 38.5°F3.6°C 86% 0.1 mph S0.2 kmh S 1.4 mph2.3 kmh 29.86 in1011.2 mb 0.00 in0.0 mm 0.00 in0.0 mm 0.09 in2.3 mm
08:15 AM 43.0°F6.1°C 39.1°F3.9°C 86% Calm Calm -- 29.86 in1011.2 mb 0.00 in0.0 mm 0.00 in0.0 mm 0.09 in2.3 mm
08:30 AM 43.7°F6.5°C 39.8°F4.3°C 86% Calm Calm -- 29.83 in1010.2 mb 0.00 in0.0 mm 0.00 in0.0 mm 0.09 in2.3 mm
08:45 AM 44.2°F6.8°C 40.3°F4.6°C 86% 0.2 mph NW0.3 kmh NW 3.2 mph5.1 kmh 29.86 in1011.2 mb 0.00 in0.0 mm 0.00 in0.0 mm 0.09 in2.3 mm
09:00 AM 44.8°F7.1°C 40.8°F4.9°C 86% 0.9 mph N1.4 kmh N 6.4 mph10.3 kmh 29.89 in1012.2 mb 0.00 in0.0 mm 0.00 in0.0 mm 0.09 in2.3 mm
09:15 AM 45.5°F7.5°C 41.6°F5.3°C 86% 0.7 mph NNW1.1 kmh NNW 3.9 mph6.3 kmh 29.89 in1012.2 mb 0.00 in0.0 mm 0.00 in0.0 mm 0.09 in2.3 mm
09:30 AM 46.2°F7.9°C 42.0°F5.6°C 85% 0.9 mph NW1.4 kmh NW 5.0 mph8.0 kmh 29.92 in1013.2 mb 0.00 in0.0 mm 0.00 in0.0 mm 0.09 in2.3 mm
09:45 AM 47.1°F8.4°C 42.8°F6.0°C 85% 1.9 mph NNW3.1 kmh NNW 6.1 mph9.8 kmh 29.92 in1013.2 mb 0.00 in0.0 mm 0.00 in0.0 mm 0.09 in2.3 mm
10:00 AM 47.8°F8.8°C 43.5°F6.4°C 85% 2.8 mph NW4.5 kmh NW 6.8 mph10.9 kmh 29.92 in1013.2 mb 0.00 in0.0 mm 0.00 in0.0 mm 0.09 in2.3 mm
10:15 AM 48.7°F9.3°C 44.1°F6.7°C 84% 4.1 mph NNW6.6 kmh NNW 10.4 mph16.7 kmh 29.89 in1012.2 mb 0.00 in0.0 mm 0.00 in0.0 mm 0.09 in2.3 mm
10:30 AM 49.3°F9.6°C 43.7°F6.5°C 81% 4.7 mph NNW7.6 kmh NNW 12.9 mph20.8 kmh 29.89 in1012.2 mb 0.00 in0.0 mm 0.00 in0.0 mm 0.09 in2.3 mm
10:45 AM 49.8°F9.9°C 43.9°F6.6°C 80% 4.6 mph NNW7.4 kmh NNW 12.2 mph19.6 kmh 29.92 in1013.2 mb 0.00 in0.0 mm 0.00 in0.0 mm 0.09 in2.3 mm
11:00 AM 50.7°F10.4°C 44.4°F6.9°C 79% 3.9 mph NW6.3 kmh NW 8.6 mph13.8 kmh 29.92 in1013.2 mb 0.00 in0.0 mm 0.00 in0.0 mm 0.09 in2.3 mm
11:15 AM 51.3°F10.7°C 44.6°F7.0°C 78% 4.1 mph NW6.6 kmh NW 12.2 mph19.6 kmh 29.95 in1014.2 mb 0.00 in0.0 mm 0.00 in0.0 mm 0.09 in2.3 mm
11:30 AM 51.3°F10.7°C 43.6°F6.4°C 75% 4.7 mph NNW7.6 kmh NNW 11.5 mph18.5 kmh 29.95 in1014.2 mb 0.00 in0.0 mm 0.00 in0.0 mm 0.09 in2.3 mm
11:45 AM 52.0°F11.1°C 43.9°F6.6°C 74% 2.5 mph NW4.0 kmh NW 9.3 mph15.0 kmh 29.95 in1014.2 mb 0.00 in0.0 mm 0.00 in0.0 mm 0.09 in2.3 mm
12:00 PM 52.9°F11.6°C 44.1°F6.7°C 72% 3.0 mph NW4.8 kmh NW 9.7 mph15.6 kmh 29.95 in1014.2 mb 0.00 in0.0 mm 0.00 in0.0 mm 0.09 in2.3 mm
12:15 PM 53.6°F12.0°C 44.4°F6.9°C 71% 2.2 mph WNW3.5 kmh WNW 8.6 mph13.8 kmh 29.98 in1015.2 mb 0.00 in0.0 mm 0.00 in0.0 mm 0.09 in2.3 mm
12:30 PM 54.3°F12.4°C 44.4°F6.9°C 69% 3.3 mph WNW5.3 kmh WNW 10.4 mph16.7 kmh 29.98 in1015.2 mb 0.00 in0.0 mm 0.00 in0.0 mm 0.09 in2.3 mm
12:45 PM 53.1°F11.7°C 42.0°F5.6°C 66% 4.0 mph NW6.4 kmh NW 12.2 mph19.6 kmh 29.98 in1015.2 mb 0.00 in0.0 mm 0.00 in0.0 mm 0.09 in2.3 mm
01:00 PM 53.2°F11.8°C 42.6°F5.9°C 67% 2.9 mph W4.7 kmh W 8.6 mph13.8 kmh 29.98 in1015.2 mb 0.00 in0.0 mm 0.00 in0.0 mm 0.09 in2.3 mm
01:15 PM 53.8°F12.1°C 42.7°F5.9°C 66% 5.0 mph WNW8.0 kmh WNW 13.6 mph21.9 kmh 29.98 in1015.2 mb 0.00 in0.0 mm 0.00 in0.0 mm 0.09 in2.3 mm
01:30 PM 54.1°F12.3°C 42.6°F5.9°C 65% 4.3 mph WNW6.9 kmh WNW 12.9 mph20.8 kmh 29.98 in1015.2 mb 0.00 in0.0 mm 0.00 in0.0 mm 0.09 in2.3 mm
01:45 PM 54.3°F12.4°C 42.0°F5.6°C 63% 4.8 mph WNW7.7 kmh WNW 11.5 mph18.5 kmh 29.98 in1015.2 mb 0.00 in0.0 mm 0.00 in0.0 mm 0.09 in2.3 mm
02:00 PM 54.3°F12.4°C 42.4°F5.8°C 64% 3.4 mph WNW5.5 kmh WNW 9.7 mph15.6 kmh 30.01 in1016.3 mb 0.00 in0.0 mm 0.00 in0.0 mm 0.09 in2.3 mm
02:15 PM 54.5°F12.5°C 42.6°F5.9°C 64% 1.9 mph WNW3.1 kmh WNW 5.7 mph9.2 kmh 30.01 in1016.3 mb 0.00 in0.0 mm 0.00 in0.0 mm 0.09 in2.3 mm
02:30 PM 54.7°F12.6°C 42.7°F5.9°C 64% 2.3 mph W3.7 kmh W 6.4 mph10.3 kmh 29.98 in1015.2 mb 0.00 in0.0 mm 0.00 in0.0 mm 0.09 in2.3 mm
02:45 PM 54.7°F12.6°C 42.7°F5.9°C 64% 3.9 mph W6.3 kmh W 10.0 mph16.1 kmh 29.98 in1015.2 mb 0.00 in0.0 mm 0.00 in0.0 mm 0.09 in2.3 mm
03:00 PM 54.1°F12.3°C 41.4°F5.2°C 62% 4.0 mph WNW6.4 kmh WNW 12.2 mph19.6 kmh 30.01 in1016.3 mb 0.00 in0.0 mm 0.00 in0.0 mm 0.09 in2.3 mm
03:15 PM 53.6°F12.0°C 40.9°F4.9°C 62% 2.7 mph W4.3 kmh W 9.7 mph15.6 kmh 30.01 in1016.3 mb 0.00 in0.0 mm 0.00 in0.0 mm 0.09 in2.3 mm
03:30 PM 53.4°F11.9°C 41.1°F5.1°C 63% 1.8 mph WNW2.9 kmh WNW 8.6 mph13.8 kmh 30.01 in1016.3 mb 0.00 in0.0 mm 0.00 in0.0 mm 0.09 in2.3 mm
03:45 PM 52.9°F11.6°C 40.6°F4.8°C 63% 1.0 mph W1.6 kmh W 5.4 mph8.7 kmh 30.01 in1016.3 mb 0.00 in0.0 mm 0.00 in0.0 mm 0.09 in2.3 mm
04:00 PM 52.5°F11.4°C 40.3°F4.6°C 63% 1.6 mph W2.6 kmh W 6.4 mph10.3 kmh 30.01 in1016.3 mb 0.00 in0.0 mm 0.00 in0.0 mm 0.09 in2.3 mm
04:15 PM 52.7°F11.5°C 40.9°F4.9°C 64% 0.8 mph W1.3 kmh W 5.7 mph9.2 kmh 30.01 in1016.3 mb 0.00 in0.0 mm 0.00 in0.0 mm 0.09 in2.3 mm
04:30 PM 52.5°F11.4°C 40.7°F4.8°C 64% 0.9 mph W1.4 kmh W 5.7 mph9.2 kmh 30.01 in1016.3 mb 0.00 in0.0 mm 0.00 in0.0 mm 0.09 in2.3 mm
04:45 PM 52.0°F11.1°C 40.6°F4.8°C 65% 0.6 mph SW1.0 kmh SW 5.7 mph9.2 kmh 30.01 in1016.3 mb 0.00 in0.0 mm 0.00 in0.0 mm 0.09 in2.3 mm
05:00 PM 50.7°F10.4°C 39.4°F4.1°C 65% Calm Calm -- 30.01 in1016.3 mb 0.00 in0.0 mm 0.00 in0.0 mm 0.09 in2.3 mm
05:15 PM 49.6°F9.8°C 39.1°F3.9°C 67% Calm Calm -- 30.01 in1016.3 mb 0.00 in0.0 mm 0.00 in0.0 mm 0.09 in2.3 mm
05:30 PM 48.6°F9.2°C 38.8°F3.8°C 69% 0.1 mph S0.2 kmh S 1.8 mph2.9 kmh 30.04 in1017.3 mb 0.00 in0.0 mm 0.00 in0.0 mm 0.09 in2.3 mm
05:45 PM 47.8°F8.8°C 38.5°F3.6°C 70% 0.2 mph S0.3 kmh S 2.5 mph4.0 kmh 30.04 in1017.3 mb 0.00 in0.0 mm 0.00 in0.0 mm 0.09 in2.3 mm
06:00 PM 47.3°F8.5°C 38.7°F3.7°C 72% 0.1 mph S0.2 kmh S 2.1 mph3.4 kmh 30.04 in1017.3 mb 0.00 in0.0 mm 0.00 in0.0 mm 0.09 in2.3 mm
06:15 PM 46.9°F8.3°C 38.7°F3.7°C 73% 0.2 mph S0.3 kmh S 5.0 mph8.0 kmh 30.04 in1017.3 mb 0.00 in0.0 mm 0.00 in0.0 mm 0.09 in2.3 mm
06:30 PM 46.8°F8.2°C 38.9°F3.8°C 74% Calm Calm 2.5 mph4.0 kmh 30.04 in1017.3 mb 0.00 in0.0 mm 0.00 in0.0 mm 0.09 in2.3 mm
06:45 PM 46.8°F8.2°C 39.3°F4.1°C 75% 0.7 mph S1.1 kmh S 4.7 mph7.6 kmh 30.04 in1017.3 mb 0.00 in0.0 mm 0.00 in0.0 mm 0.09 in2.3 mm
07:00 PM 46.6°F8.1°C 39.4°F4.1°C 76% 0.6 mph S1.0 kmh S 4.3 mph6.9 kmh 30.04 in1017.3 mb 0.00 in0.0 mm 0.00 in0.0 mm 0.09 in2.3 mm
07:15 PM 46.4°F8.0°C 39.6°F4.2°C 77% 1.8 mph S2.9 kmh S 6.4 mph10.3 kmh 30.04 in1017.3 mb 0.00 in0.0 mm 0.00 in0.0 mm 0.09 in2.3 mm
07:30 PM 46.4°F8.0°C 39.9°F4.4°C 78% 2.3 mph S3.7 kmh S 5.4 mph8.7 kmh 30.04 in1017.3 mb 0.00 in0.0 mm 0.00 in0.0 mm 0.09 in2.3 mm
07:45 PM 46.4°F8.0°C 39.9°F4.4°C 78% 1.8 mph S2.9 kmh S 5.0 mph8.0 kmh 30.04 in1017.3 mb 0.00 in0.0 mm 0.00 in0.0 mm 0.09 in2.3 mm
08:00 PM 46.0°F7.8°C 39.6°F4.2°C 78% 2.1 mph S3.4 kmh S 8.9 mph14.3 kmh 30.04 in1017.3 mb 0.00 in0.0 mm 0.00 in0.0 mm 0.09 in2.3 mm
08:15 PM 45.7°F7.6°C 39.2°F4.0°C 78% 2.2 mph S3.5 kmh S 6.8 mph10.9 kmh 30.01 in1016.3 mb 0.00 in0.0 mm 0.00 in0.0 mm 0.09 in2.3 mm
08:30 PM 45.5°F7.5°C 39.0°F3.9°C 78% 1.5 mph S2.4 kmh S 6.8 mph10.9 kmh 30.04 in1017.3 mb 0.00 in0.0 mm 0.00 in0.0 mm 0.09 in2.3 mm
08:45 PM 45.9°F7.7°C 39.7°F4.3°C 79% 2.0 mph S3.2 kmh S 6.4 mph10.3 kmh 30.04 in1017.3 mb 0.00 in0.0 mm 0.00 in0.0 mm 0.09 in2.3 mm
09:00 PM 46.8°F8.2°C 40.9°F4.9°C 80% 1.8 mph S2.9 kmh S 5.7 mph9.2 kmh 30.04 in1017.3 mb 0.00 in0.0 mm 0.00 in0.0 mm 0.09 in2.3 mm
09:15 PM 47.1°F8.4°C 41.3°F5.2°C 80% 2.8 mph SSW4.5 kmh SSW 9.7 mph15.6 kmh 30.04 in1017.3 mb 0.00 in0.0 mm 0.00 in0.0 mm 0.09 in2.3 mm
09:30 PM 47.7°F8.7°C 41.8°F5.4°C 80% 4.5 mph S7.2 kmh S 9.3 mph15.0 kmh 30.04 in1017.3 mb 0.00 in0.0 mm 0.00 in0.0 mm 0.09 in2.3 mm
09:45 PM 48.2°F9.0°C 42.3°F5.7°C 80% 4.4 mph S7.1 kmh S 10.0 mph16.1 kmh 30.04 in1017.3 mb 0.00 in0.0 mm 0.00 in0.0 mm 0.09 in2.3 mm
10:00 PM 49.3°F9.6°C 43.7°F6.5°C 81% 6.3 mph S10.1 kmh S 15.4 mph24.8 kmh 30.04 in1017.3 mb 0.00 in0.0 mm 0.00 in0.0 mm 0.09 in2.3 mm
10:15 PM 49.8°F9.9°C 44.2°F6.8°C 81% 6.3 mph S10.1 kmh S 15.7 mph25.3 kmh 30.04 in1017.3 mb 0.00 in0.0 mm 0.00 in0.0 mm 0.09 in2.3 mm
10:31 PM 50.4°F10.2°C 44.4°F6.9°C 80% 6.4 mph SSW10.3 kmh SSW 19.3 mph31.1 kmh 30.01 in1016.3 mb 0.00 in0.0 mm 0.00 in0.0 mm 0.09 in2.3 mm
10:45 PM 50.2°F10.1°C 43.9°F6.6°C 79% 3.9 mph W6.3 kmh W 7.9 mph12.7 kmh 30.04 in1017.3 mb 0.00 in0.0 mm 0.00 in0.0 mm 0.09 in2.3 mm
11:00 PM 50.0°F10.0°C 43.4°F6.3°C 78% 4.0 mph W6.4 kmh W 10.0 mph16.1 kmh 30.01 in1016.3 mb 0.00 in0.0 mm 0.00 in0.0 mm 0.10 in2.5 mm
11:15 PM 49.8°F9.9°C 43.2°F6.2°C 78% 4.3 mph W6.9 kmh W 10.4 mph16.7 kmh 30.01 in1016.3 mb 0.00 in0.0 mm 0.00 in0.0 mm 0.10 in2.5 mm
11:30 PM 49.6°F9.8°C 42.7°F5.9°C 77% 4.7 mph W7.6 kmh W 11.1 mph17.9 kmh 30.01 in1016.3 mb 0.00 in0.0 mm 0.00 in0.0 mm 0.10 in2.5 mm
11:45 PM 49.5°F9.7°C 42.5°F5.8°C 77% 5.9 mph W9.5 kmh W 12.2 mph19.6 kmh 30.01 in1016.3 mb 0.00 in0.0 mm 0.00 in0.0 mm 0.10 in2.5 mm